createdAt,value
2023-03-28T00:00:16.812Z,97.69
2023-03-28T00:02:43.236Z,97.47
2023-03-28T00:05:11.247Z,97.79
2023-03-28T00:07:38.384Z,97.63
2023-03-28T00:10:06.651Z,97.04
2023-03-28T00:12:33.119Z,97.73
2023-03-28T00:15:00.776Z,97.36
2023-03-28T00:17:27.155Z,97.09
2023-03-28T00:19:53.684Z,95.33
2023-03-28T00:22:21.267Z,93.92
2023-03-28T00:24:48.815Z,93.62
2023-03-28T00:27:16.011Z,94.09
2023-03-28T00:29:42.599Z,93.62
2023-03-28T00:32:09.023Z,94.31
2023-03-28T00:34:40.572Z,94.40
2023-03-28T00:37:07.023Z,94.75
2023-03-28T00:39:34.519Z,94.90
2023-03-28T00:42:01.686Z,95.28
2023-03-28T00:44:46.795Z,93.48
2023-03-28T00:47:16.758Z,93.02
2023-03-28T00:49:46.688Z,93.13
2023-03-28T00:52:15.397Z,92.78
2023-03-28T00:54:42.059Z,92.50
2023-03-28T00:57:09.872Z,92.87
2023-03-28T00:59:38.677Z,92.10
2023-03-28T01:02:06.180Z,93.20
2023-03-28T01:04:49.651Z,93.24
2023-03-28T01:07:16.798Z,93.37
2023-03-28T01:09:43.577Z,93.63
2023-03-28T01:12:11.218Z,94.37
2023-03-28T01:14:39.956Z,95.52
2023-03-28T01:17:06.562Z,95.69
2023-03-28T01:20:00.745Z,95.51
2023-03-28T01:22:58.392Z,94.70
2023-03-28T01:25:48.876Z,93.39
2023-03-28T01:28:36.388Z,93.69
2023-03-28T01:31:11.941Z,93.48
2023-03-28T01:33:57.157Z,95.05
2023-03-28T01:36:48.132Z,93.89
2023-03-28T01:39:49.416Z,93.48
2023-03-28T01:42:21.555Z,94.31
2023-03-28T01:44:51.746Z,94.09
2023-03-28T01:47:40.673Z,95.32
2023-03-28T01:50:19.958Z,95.64
2023-03-28T01:53:07.897Z,96.06
2023-03-28T01:55:48.568Z,96.52
2023-03-28T01:58:36.258Z,96.99
2023-03-28T02:01:13.717Z,97.24
2023-03-28T02:03:46.447Z,97.59
2023-03-28T02:06:14.557Z,97.66
2023-03-28T02:08:43.708Z,97.78
2023-03-28T02:11:11.029Z,97.99
2023-03-28T02:13:43.840Z,97.59
2023-03-28T02:16:12.060Z,97.35
2023-03-28T02:18:41.709Z,96.61
2023-03-28T02:21:17.182Z,96.92
2023-03-28T02:23:47.268Z,96.33
2023-03-28T02:26:14.203Z,97.98
2023-03-28T02:28:43.231Z,97.60
2023-03-28T02:31:11.178Z,97.55
2023-03-28T02:33:47.237Z,97.85
2023-03-28T02:36:41.787Z,97.23
2023-03-28T02:39:39.241Z,97.71
2023-03-28T02:42:05.845Z,97.71
2023-03-28T02:45:09.927Z,97.70
2023-03-28T02:47:39.447Z,97.00
2023-03-28T02:50:30.151Z,98.18
2023-03-28T02:53:08.714Z,97.70
2023-03-28T02:56:05.599Z,97.21
2023-03-28T02:58:46.274Z,98.63
2023-03-28T03:01:14.570Z,98.39
2023-03-28T03:03:42.325Z,97.69
2023-03-28T03:06:09.400Z,97.90
2023-03-28T03:08:36.111Z,98.14
2023-03-28T03:11:02.570Z,98.21
2023-03-28T03:13:28.967Z,97.75
2023-03-28T03:15:56.193Z,98.01
2023-03-28T03:18:22.872Z,99.02
2023-03-28T03:20:50.348Z,98.88
2023-03-28T03:23:17.396Z,98.09
2023-03-28T03:25:45.227Z,96.92
2023-03-28T03:28:12.956Z,96.92
2023-03-28T03:30:39.354Z,97.39
2023-03-28T03:33:05.872Z,96.81
2023-03-28T03:35:35.592Z,96.72
2023-03-28T03:38:02.362Z,98.52
2023-03-28T03:40:28.743Z,97.81
2023-03-28T03:42:55.329Z,97.37
2023-03-28T03:45:22.143Z,98.65
2023-03-28T03:47:48.528Z,98.92
2023-03-28T03:50:15.228Z,98.89
2023-03-28T03:52:41.981Z,98.96
2023-03-28T03:55:09.292Z,98.83
2023-03-28T03:57:36.014Z,97.41
2023-03-28T04:00:09.628Z,98.04
2023-03-28T04:02:36.120Z,98.02
2023-03-28T04:05:02.565Z,98.36
2023-03-28T04:07:28.953Z,97.38
2023-03-28T04:09:56.785Z,97.24
2023-03-28T04:12:23.208Z,96.93
2023-03-28T04:14:49.603Z,97.92
2023-03-28T04:17:17.649Z,97.68
2023-03-28T04:19:45.754Z,97.20
2023-03-28T04:22:12.928Z,97.45
2023-03-28T04:24:44.618Z,97.22
2023-03-28T04:27:12.056Z,97.88
2023-03-28T04:29:39.278Z,97.91
2023-03-28T04:32:06.539Z,96.68
2023-03-28T04:34:33.826Z,94.48
2023-03-28T04:37:01.872Z,96.02
2023-03-28T04:39:29.886Z,96.88
2023-03-28T04:41:56.635Z,97.29
2023-03-28T04:44:23.366Z,96.73
2023-03-28T04:46:51.233Z,96.82
2023-03-28T04:49:18.064Z,97.08
2023-03-28T04:51:44.733Z,97.93
2023-03-28T04:54:11.267Z,98.24
2023-03-28T04:56:38.117Z,98.21
2023-03-28T04:59:04.617Z,97.50
2023-03-28T05:01:31.251Z,97.60
2023-03-28T05:03:57.627Z,97.79
2023-03-28T05:06:25.889Z,97.78
2023-03-28T05:08:52.252Z,97.57
2023-03-28T05:11:19.787Z,97.52
2023-03-28T05:13:46.234Z,98.00
2023-03-28T05:16:12.673Z,98.41
2023-03-28T05:18:39.047Z,98.32
2023-03-28T05:21:06.075Z,98.37
2023-03-28T05:23:32.629Z,99.13
2023-03-28T05:25:59.053Z,98.80
2023-03-28T05:28:25.629Z,98.76
2023-03-28T05:30:52.069Z,98.71
2023-03-28T05:33:18.525Z,99.88
2023-03-28T05:35:45.045Z,98.91
2023-03-28T05:38:11.547Z,99.33
2023-03-28T05:40:37.952Z,99.29
2023-03-28T05:43:04.693Z,98.52
2023-03-28T05:45:31.182Z,99.20
2023-03-28T05:47:57.660Z,98.93
2023-03-28T05:50:26.251Z,99.35
2023-03-28T05:52:52.973Z,98.01
2023-03-28T05:55:19.322Z,98.01
2023-03-28T05:57:45.675Z,98.35
2023-03-28T06:00:12.628Z,98.28
2023-03-28T06:02:40.316Z,98.00
2023-03-28T06:05:07.744Z,97.38
2023-03-28T06:07:42.184Z,98.01
2023-03-28T06:10:12.500Z,98.21
2023-03-28T06:12:39.520Z,98.53
2023-03-28T06:15:06.870Z,98.00
2023-03-28T06:17:33.452Z,97.88
2023-03-28T06:20:00.382Z,97.42
2023-03-28T06:22:26.957Z,96.56
2023-03-28T06:24:53.433Z,96.99
2023-03-28T06:27:19.789Z,97.49
2023-03-28T06:29:46.176Z,97.79
2023-03-28T06:32:12.658Z,97.61
2023-03-28T06:34:39.096Z,98.00
2023-03-28T06:37:05.554Z,97.84
2023-03-28T06:39:31.931Z,97.52
2023-03-28T06:41:59.681Z,97.28
2023-03-28T06:44:26.123Z,98.29
2023-03-28T06:46:52.516Z,97.65
2023-03-28T06:49:19.029Z,98.01
2023-03-28T06:51:45.566Z,96.35
2023-03-28T06:54:11.928Z,96.89
2023-03-28T06:56:38.343Z,96.16
2023-03-28T06:59:04.758Z,96.19
2023-03-28T07:01:31.159Z,95.98
2023-03-28T07:03:59.520Z,95.35
2023-03-28T07:06:28.004Z,95.00
2023-03-28T07:08:56.942Z,94.56
2023-03-28T07:11:23.389Z,93.93
2023-03-28T07:13:50.245Z,93.51
2023-03-28T07:16:17.524Z,93.25
2023-03-28T07:18:44.310Z,93.58
2023-03-28T07:21:13.849Z,93.48
2023-03-28T07:23:40.798Z,93.43
2023-03-28T07:26:09.335Z,93.11
2023-03-28T07:28:36.176Z,93.14
2023-03-28T07:31:05.018Z,93.10
2023-03-28T07:33:37.246Z,91.88
2023-03-28T07:36:16.103Z,91.71
2023-03-28T07:38:42.652Z,91.34
2023-03-28T07:41:09.510Z,92.38
2023-03-28T07:43:36.300Z,91.63
2023-03-28T07:46:06.325Z,90.07
2023-03-28T07:48:33.326Z,88.66
2023-03-28T07:51:00.464Z,88.40
2023-03-28T07:53:27.996Z,88.91
2023-03-28T07:55:55.955Z,88.16
2023-03-28T07:58:23.683Z,87.30
2023-03-28T08:00:50.542Z,88.05
2023-03-28T08:03:17.212Z,86.93
2023-03-28T08:05:51.640Z,87.28
2023-03-28T08:08:20.181Z,86.59
2023-03-28T08:10:50.842Z,86.65
2023-03-28T08:13:18.377Z,84.37
2023-03-28T08:15:44.803Z,84.32
2023-03-28T08:18:13.022Z,84.87
2023-03-28T08:20:39.451Z,83.62
2023-03-28T08:23:07.399Z,82.99
2023-03-28T08:25:33.777Z,83.22
2023-03-28T08:28:00.219Z,84.39
2023-03-28T08:30:26.728Z,84.40
2023-03-28T08:32:53.365Z,81.30
2023-03-28T08:35:19.785Z,82.08
2023-03-28T08:37:46.479Z,79.52
2023-03-28T08:40:17.401Z,80.87
2023-03-28T08:42:56.758Z,79.24
2023-03-28T08:45:41.486Z,77.95
2023-03-28T08:48:10.930Z,77.60
2023-03-28T08:50:51.059Z,76.47
2023-03-28T08:53:41.418Z,75.07
2023-03-28T08:56:08.475Z,75.42
2023-03-28T08:58:51.339Z,72.68
2023-03-28T09:01:22.092Z,71.05
2023-03-28T09:03:53.567Z,69.30
2023-03-28T09:06:28.674Z,72.45
2023-03-28T09:09:13.127Z,73.10
2023-03-28T09:11:54.453Z,72.06
2023-03-28T09:15:01.417Z,69.86
2023-03-28T09:17:33.343Z,71.18
2023-03-28T09:20:21.263Z,67.41
2023-03-28T09:23:06.477Z,70.09
2023-03-28T09:25:49.057Z,69.01
2023-03-28T09:28:35.388Z,68.96
2023-03-28T09:31:05.348Z,68.62
2023-03-28T09:33:38.594Z,65.96
2023-03-28T09:36:12.259Z,65.72
2023-03-28T09:38:44.568Z,68.16
2023-03-28T09:41:23.110Z,63.16
2023-03-28T09:43:56.247Z,64.94
2023-03-28T09:46:31.627Z,65.69
2023-03-28T09:48:58.425Z,63.65
2023-03-28T09:51:25.234Z,63.69
2023-03-28T09:53:51.620Z,61.96
2023-03-28T09:56:31.928Z,62.45
2023-03-28T09:59:02.388Z,61.43
2023-03-28T10:01:46.172Z,60.20
2023-03-28T10:04:18.660Z,60.53
2023-03-28T10:06:46.392Z,57.87
2023-03-28T10:09:30.855Z,55.70
2023-03-28T10:12:00.289Z,57.79
2023-03-28T10:14:31.020Z,56.30
2023-03-28T10:17:01.946Z,57.43
2023-03-28T10:19:33.426Z,55.18
2023-03-28T10:22:07.523Z,58.18
2023-03-28T10:24:34.923Z,56.07
2023-03-28T10:27:23.903Z,55.87
2023-03-28T10:29:53.394Z,55.47
2023-03-28T10:32:29.020Z,56.51
2023-03-28T10:35:26.898Z,54.75
2023-03-28T10:37:56.969Z,56.24
2023-03-28T10:40:30.053Z,54.79
2023-03-28T10:42:58.462Z,54.61
2023-03-28T10:45:38.120Z,52.64
2023-03-28T10:48:27.732Z,52.55
2023-03-28T10:50:56.634Z,53.66
2023-03-28T10:53:23.010Z,50.73
2023-03-28T10:56:19.667Z,48.45
2023-03-28T10:58:55.906Z,48.35
2023-03-28T11:01:30.176Z,47.34
2023-03-28T11:04:23.278Z,47.04
2023-03-28T11:06:58.792Z,50.29
2023-03-28T11:09:31.586Z,46.21
2023-03-28T11:12:22.962Z,46.82
2023-03-28T11:15:05.375Z,46.31
2023-03-28T11:18:13.639Z,48.65
2023-03-28T11:21:17.722Z,46.49
2023-03-28T11:23:46.393Z,46.15
2023-03-28T11:26:17.348Z,46.34
2023-03-28T11:28:52.812Z,45.76
2023-03-28T11:31:24.891Z,46.79
2023-03-28T11:34:00.632Z,44.91
2023-03-28T11:36:34.817Z,43.63
2023-03-28T11:39:10.736Z,47.21
2023-03-28T11:41:39.568Z,46.16
2023-03-28T11:44:38.428Z,44.96
2023-03-28T11:47:12.274Z,45.11
2023-03-28T11:49:44.467Z,43.05
2023-03-28T11:52:22.942Z,43.49
2023-03-28T11:55:07.610Z,45.00
2023-03-28T11:57:51.224Z,46.05
2023-03-28T12:03:11.593Z,45.70
2023-03-28T12:05:46.274Z,45.70
2023-03-28T12:08:19.552Z,44.69
2023-03-28T12:10:51.227Z,43.79
2023-03-28T12:13:45.918Z,44.77
2023-03-28T12:16:29.161Z,45.24
2023-03-28T12:19:01.462Z,45.22
2023-03-28T12:21:38.772Z,45.71
2023-03-28T12:24:20.521Z,43.88
2023-03-28T12:27:09.115Z,43.54
2023-03-28T12:29:36.128Z,43.16
2023-03-28T12:32:26.583Z,41.62
2023-03-28T12:35:05.752Z,42.33
2023-03-28T12:37:42.077Z,43.19
2023-03-28T12:40:27.158Z,44.68
2023-03-28T12:42:58.071Z,45.00
2023-03-28T12:45:31.620Z,43.70
2023-03-28T12:48:06.354Z,42.42
2023-03-28T12:50:48.143Z,42.72
2023-03-28T12:53:15.657Z,42.46
2023-03-28T12:55:52.038Z,42.27
2023-03-28T12:58:21.753Z,42.26
2023-03-28T13:01:06.244Z,42.56
2023-03-28T13:04:03.840Z,41.32
2023-03-28T13:06:53.052Z,42.68
2023-03-28T13:09:49.471Z,41.15
2023-03-28T13:12:21.631Z,41.29
2023-03-28T13:14:58.601Z,42.43
2023-03-28T13:17:27.544Z,42.31
2023-03-28T13:20:15.947Z,41.60
2023-03-28T13:22:50.286Z,42.12
2023-03-28T13:25:21.172Z,42.26
2023-03-28T13:27:49.535Z,42.21
2023-03-28T13:30:18.680Z,43.11
2023-03-28T13:32:53.684Z,43.65
2023-03-28T13:35:39.527Z,42.90
2023-03-28T13:38:21.078Z,40.04
2023-03-28T13:40:56.021Z,42.05
2023-03-28T13:43:37.656Z,39.87
2023-03-28T13:46:19.383Z,42.12
2023-03-28T13:49:05.187Z,41.81
2023-03-28T13:51:39.862Z,41.08
2023-03-28T13:54:08.948Z,41.93
2023-03-28T13:56:36.025Z,41.74
2023-03-28T13:59:06.741Z,42.19
2023-03-28T14:01:36.333Z,41.33
2023-03-28T14:04:11.168Z,41.61
2023-03-28T14:06:42.026Z,40.00
2023-03-28T14:09:39.368Z,41.23
2023-03-28T14:12:13.711Z,40.67
2023-03-28T14:14:50.604Z,41.38
2023-03-28T14:17:20.102Z,41.15
2023-03-28T14:19:51.808Z,41.34
2023-03-28T14:22:23.495Z,40.79
2023-03-28T14:24:57.716Z,41.68
2023-03-28T14:27:38.354Z,40.64
2023-03-28T14:30:19.604Z,43.20
2023-03-28T14:32:59.014Z,46.06
2023-03-28T14:35:35.371Z,46.19
2023-03-28T14:38:04.462Z,45.99
2023-03-28T14:40:39.246Z,47.03
2023-03-28T14:43:19.317Z,47.66
2023-03-28T14:45:51.796Z,48.08
2023-03-28T14:48:23.804Z,47.83
2023-03-28T14:50:53.326Z,48.37
2023-03-28T14:53:24.415Z,48.91
2023-03-28T14:55:54.441Z,47.41
2023-03-28T14:58:23.972Z,47.71
2023-03-28T15:00:54.336Z,47.89
2023-03-28T15:03:42.266Z,46.96
2023-03-28T15:06:15.019Z,47.32
2023-03-28T15:08:41.846Z,47.06
2023-03-28T15:11:18.494Z,47.38
2023-03-28T15:13:49.110Z,46.30
2023-03-28T15:16:20.326Z,46.56
2023-03-28T15:19:06.726Z,47.71
2023-03-28T15:21:39.128Z,46.91
2023-03-28T15:24:10.181Z,47.39
2023-03-28T15:26:41.948Z,48.10
2023-03-28T15:29:10.141Z,46.95
2023-03-28T15:31:40.685Z,47.76
2023-03-28T15:34:21.949Z,49.20
2023-03-28T15:36:57.618Z,49.47
2023-03-28T15:39:27.176Z,48.42
2023-03-28T15:41:59.444Z,48.49
2023-03-28T15:44:32.963Z,48.39
2023-03-28T15:47:03.196Z,48.29
2023-03-28T15:49:35.170Z,47.84
2023-03-28T15:52:04.890Z,48.91
2023-03-28T15:54:42.151Z,50.28
2023-03-28T15:57:12.137Z,51.91
2023-03-28T15:59:46.301Z,51.07
2023-03-28T16:02:25.169Z,51.21
2023-03-28T16:05:00.642Z,51.84
2023-03-28T16:07:33.077Z,51.79
2023-03-28T16:09:59.506Z,53.45
2023-03-28T16:12:27.202Z,53.17
2023-03-28T16:14:55.254Z,53.01
2023-03-28T16:17:29.379Z,54.15
2023-03-28T16:19:56.845Z,54.11
2023-03-28T16:22:24.523Z,54.31
2023-03-28T16:24:52.591Z,54.52
2023-03-28T16:27:20.270Z,54.77
2023-03-28T16:29:46.980Z,54.72
2023-03-28T16:32:15.598Z,54.20
2023-03-28T16:34:42.982Z,54.79
2023-03-28T16:37:10.307Z,54.25
2023-03-28T16:39:37.496Z,54.40
2023-03-28T16:42:05.336Z,54.90
2023-03-28T16:44:32.451Z,54.73
2023-03-28T16:46:59.755Z,54.57
2023-03-28T16:49:26.900Z,55.25
2023-03-28T16:51:54.760Z,54.56
2023-03-28T16:54:24.530Z,54.97
2023-03-28T16:56:51.053Z,55.42
2023-03-28T16:59:17.702Z,55.28
2023-03-28T17:01:46.362Z,54.81
2023-03-28T17:04:13.492Z,55.49
2023-03-28T17:06:40.230Z,55.64
2023-03-28T17:09:06.782Z,56.03
2023-03-28T17:11:36.389Z,55.88
2023-03-28T17:14:03.644Z,55.99
2023-03-28T17:16:30.070Z,55.59
2023-03-28T17:18:56.578Z,55.80
2023-03-28T17:21:22.949Z,55.35
2023-03-28T17:23:50.908Z,55.96
2023-03-28T17:26:18.315Z,56.43
2023-03-28T17:28:45.161Z,56.61
2023-03-28T17:31:14.707Z,57.04
2023-03-28T17:33:41.571Z,57.13
2023-03-28T17:36:19.650Z,57.23
2023-03-28T17:38:48.877Z,57.17
2023-03-28T17:41:15.400Z,57.72
2023-03-28T17:43:42.384Z,57.74
2023-03-28T17:46:09.753Z,58.02
2023-03-28T17:48:38.696Z,58.42
2023-03-28T17:51:05.385Z,59.03
2023-03-28T17:53:32.311Z,58.55
2023-03-28T17:55:59.822Z,58.46
2023-03-28T17:58:26.474Z,58.31
2023-03-28T18:00:53.108Z,57.49
2023-03-28T18:03:19.923Z,58.29
2023-03-28T18:05:53.763Z,58.92
2023-03-28T18:08:20.313Z,58.59
2023-03-28T18:10:47.476Z,58.83
2023-03-28T18:13:14.896Z,58.87
2023-03-28T18:15:42.209Z,58.15
2023-03-28T18:18:09.419Z,58.78
2023-03-28T18:20:36.222Z,58.45
2023-03-28T18:23:02.616Z,59.13
2023-03-28T18:25:32.359Z,59.52
2023-03-28T18:27:59.509Z,60.35
2023-03-28T18:30:25.899Z,60.35
2023-03-28T18:32:52.319Z,60.59
2023-03-28T18:35:18.754Z,60.57
2023-03-28T18:37:45.351Z,60.52
2023-03-28T18:40:14.274Z,60.70
2023-03-28T18:42:41.453Z,62.02
2023-03-28T18:45:08.915Z,62.23
2023-03-28T18:47:39.206Z,61.40
2023-03-28T18:50:06.929Z,61.86
2023-03-28T18:52:33.374Z,61.89
2023-03-28T18:54:59.778Z,62.59
2023-03-28T18:57:26.432Z,62.25
2023-03-28T18:59:55.479Z,61.46
2023-03-28T19:02:22.180Z,61.76
2023-03-28T19:04:49.116Z,61.85
2023-03-28T19:07:16.942Z,61.22
2023-03-28T19:09:43.854Z,61.22
2023-03-28T19:12:12.266Z,61.87
2023-03-28T19:14:39.291Z,60.83
2023-03-28T19:17:06.589Z,61.28
2023-03-28T19:19:37.143Z,61.63
2023-03-28T19:22:06.242Z,61.93
2023-03-28T19:24:33.549Z,62.05
2023-03-28T19:27:01.400Z,61.63
2023-03-28T19:29:29.978Z,62.54
2023-03-28T19:31:56.726Z,62.55
2023-03-28T19:34:23.283Z,61.50
2023-03-28T19:36:49.868Z,61.44
2023-03-28T19:39:16.314Z,60.93
2023-03-28T19:41:42.858Z,62.01
2023-03-28T19:44:09.441Z,61.89
2023-03-28T19:46:38.477Z,62.17
2023-03-28T19:49:06.376Z,63.79
2023-03-28T19:51:34.069Z,64.31
2023-03-28T19:54:00.662Z,64.32
2023-03-28T19:56:27.303Z,61.31
2023-03-28T19:58:53.688Z,60.84
2023-03-28T20:01:20.113Z,61.67
2023-03-28T20:03:49.390Z,61.09
2023-03-28T20:06:16.851Z,60.44
2023-03-28T20:08:43.337Z,60.71
2023-03-28T20:11:12.583Z,61.77
2023-03-28T20:13:39.413Z,63.07
2023-03-28T20:16:08.450Z,65.50
2023-03-28T20:18:36.962Z,67.43
2023-03-28T20:21:06.745Z,68.54
2023-03-28T20:23:33.511Z,74.44
2023-03-28T20:26:01.625Z,71.66
2023-03-28T20:28:32.511Z,73.90
2023-03-28T20:30:59.519Z,73.25
2023-03-28T20:33:26.261Z,74.38
2023-03-28T20:35:58.153Z,75.74
2023-03-28T20:38:26.068Z,75.38
2023-03-28T20:40:52.757Z,77.33
2023-03-28T20:43:26.765Z,78.62
2023-03-28T20:45:54.990Z,78.97
2023-03-28T20:48:34.948Z,79.70
2023-03-28T20:51:03.090Z,79.69
2023-03-28T20:53:30.690Z,80.84
2023-03-28T20:56:04.980Z,82.19
2023-03-28T20:58:32.989Z,82.61
2023-03-28T21:01:01.596Z,81.43
2023-03-28T21:03:47.764Z,82.45
2023-03-28T21:06:16.506Z,82.33
2023-03-28T21:08:47.442Z,82.80
2023-03-28T21:11:22.504Z,83.31
2023-03-28T21:13:49.503Z,82.95
2023-03-28T21:16:17.271Z,83.38
2023-03-28T21:18:44.542Z,82.86
2023-03-28T21:21:13.125Z,83.39
2023-03-28T21:23:40.726Z,83.97
2023-03-28T21:26:10.236Z,83.81
2023-03-28T21:28:36.767Z,83.59
2023-03-28T21:31:10.099Z,83.97
2023-03-28T21:33:38.085Z,84.84
2023-03-28T21:36:07.248Z,84.00
2023-03-28T21:38:34.418Z,84.59
2023-03-28T21:41:01.001Z,85.23
2023-03-28T21:43:27.809Z,85.77
2023-03-28T21:45:54.312Z,86.25
2023-03-28T21:48:21.086Z,84.93
2023-03-28T21:50:59.311Z,86.55
2023-03-28T21:53:28.264Z,87.53
2023-03-28T21:55:56.108Z,87.34
2023-03-28T21:58:23.487Z,87.85
2023-03-28T22:00:50.251Z,88.50
2023-03-28T22:03:16.937Z,89.81
2023-03-28T22:05:44.103Z,90.67
2023-03-28T22:08:12.413Z,91.45
2023-03-28T22:10:45.758Z,93.30
2023-03-28T22:13:13.819Z,91.87
2023-03-28T22:15:40.663Z,94.60
2023-03-28T22:18:09.214Z,91.62
2023-03-28T22:20:37.875Z,93.48
2023-03-28T22:23:05.091Z,93.71
2023-03-28T22:25:34.627Z,93.59
2023-03-28T22:28:07.431Z,92.88
2023-03-28T22:30:34.600Z,93.74
2023-03-28T22:33:02.362Z,94.17
2023-03-28T22:35:28.830Z,95.18
2023-03-28T22:37:55.391Z,93.19
2023-03-28T22:40:22.122Z,94.59
2023-03-28T22:42:48.623Z,94.10
2023-03-28T22:45:16.602Z,93.34
2023-03-28T22:47:42.965Z,94.14
2023-03-28T22:50:12.321Z,93.34
2023-03-28T22:52:38.874Z,93.96
2023-03-28T22:55:05.969Z,95.20
2023-03-28T22:57:32.860Z,94.86
2023-03-28T22:59:59.963Z,94.84
2023-03-28T23:02:26.322Z,96.86
2023-03-28T23:04:54.168Z,96.38
2023-03-28T23:07:20.815Z,96.62
2023-03-28T23:09:48.095Z,96.34
2023-03-28T23:12:14.670Z,94.78
2023-03-28T23:14:41.278Z,95.91
2023-03-28T23:17:09.671Z,96.52
2023-03-28T23:19:36.045Z,96.81
2023-03-28T23:22:02.392Z,97.39
2023-03-28T23:24:28.865Z,95.73
2023-03-28T23:26:56.079Z,94.77
2023-03-28T23:29:23.207Z,94.21
2023-03-28T23:31:50.201Z,94.50
2023-03-28T23:34:16.830Z,94.85
2023-03-28T23:36:45.909Z,95.48
2023-03-28T23:39:13.357Z,94.58
2023-03-28T23:41:40.900Z,96.20
2023-03-28T23:44:07.787Z,97.52
2023-03-28T23:46:34.679Z,96.92
2023-03-28T23:49:01.143Z,97.94
2023-03-28T23:51:29.122Z,96.50
2023-03-28T23:53:56.234Z,94.66
2023-03-28T23:56:23.887Z,94.85
2023-03-28T23:58:50.667Z,96.48
